sensor_id;sensor_type;location;lat;lon;timestamp;P1;durP1;ratioP1;P2;durP2;ratioP2
8161;SDS011;16778;48.154;15.094;2023-01-08T00:02:19;7.27;;;4.43;;
8161;SDS011;16778;48.154;15.094;2023-01-08T00:04:45;6.50;;;4.53;;
8161;SDS011;16778;48.154;15.094;2023-01-08T00:07:11;6.43;;;4.07;;
8161;SDS011;16778;48.154;15.094;2023-01-08T00:09:36;7.53;;;4.57;;
8161;SDS011;16778;48.154;15.094;2023-01-08T00:12:02;6.10;;;3.90;;
8161;SDS011;16778;48.154;15.094;2023-01-08T00:14:29;10.90;;;4.53;;
8161;SDS011;16778;48.154;15.094;2023-01-08T00:16:54;5.90;;;3.83;;
8161;SDS011;16778;48.154;15.094;2023-01-08T00:19:20;8.00;;;3.90;;
8161;SDS011;16778;48.154;15.094;2023-01-08T00:21:46;7.97;;;4.87;;
8161;SDS011;16778;48.154;15.094;2023-01-08T00:24:11;7.00;;;4.67;;
8161;SDS011;16778;48.154;15.094;2023-01-08T00:26:37;8.70;;;4.13;;
8161;SDS011;16778;48.154;15.094;2023-01-08T00:29:03;7.73;;;4.00;;
8161;SDS011;16778;48.154;15.094;2023-01-08T00:31:29;6.27;;;4.47;;
8161;SDS011;16778;48.154;15.094;2023-01-08T00:33:54;11.10;;;4.17;;
8161;SDS011;16778;48.154;15.094;2023-01-08T00:36:20;6.30;;;4.13;;
8161;SDS011;16778;48.154;15.094;2023-01-08T00:38:46;6.97;;;4.20;;
8161;SDS011;16778;48.154;15.094;2023-01-08T00:41:12;6.93;;;4.37;;
8161;SDS011;16778;48.154;15.094;2023-01-08T00:43:38;7.03;;;4.13;;
8161;SDS011;16778;48.154;15.094;2023-01-08T00:46:04;7.23;;;4.40;;
8161;SDS011;16778;48.154;15.094;2023-01-08T00:48:31;7.47;;;4.67;;
8161;SDS011;16778;48.154;15.094;2023-01-08T00:51:00;5.17;;;3.57;;
8161;SDS011;16778;48.154;15.094;2023-01-08T00:53:26;5.57;;;4.00;;
8161;SDS011;16778;48.154;15.094;2023-01-08T00:55:58;6.67;;;4.63;;
8161;SDS011;16778;48.154;15.094;2023-01-08T00:58:27;8.00;;;4.13;;
8161;SDS011;16778;48.154;15.094;2023-01-08T01:00:53;5.77;;;4.10;;
8161;SDS011;16778;48.154;15.094;2023-01-08T01:03:19;7.00;;;4.30;;
8161;SDS011;16778;48.154;15.094;2023-01-08T01:05:45;7.37;;;4.03;;
8161;SDS011;16778;48.154;15.094;2023-01-08T01:08:10;6.10;;;3.70;;
8161;SDS011;16778;48.154;15.094;2023-01-08T01:10:37;6.67;;;4.20;;
8161;SDS011;16778;48.154;15.094;2023-01-08T01:13:03;6.40;;;3.87;;
8161;SDS011;16778;48.154;15.094;2023-01-08T01:15:29;7.17;;;4.10;;
8161;SDS011;16778;48.154;15.094;2023-01-08T01:17:55;7.80;;;4.50;;
8161;SDS011;16778;48.154;15.094;2023-01-08T01:20:20;11.47;;;5.10;;
8161;SDS011;16778;48.154;15.094;2023-01-08T01:22:47;9.60;;;4.67;;
8161;SDS011;16778;48.154;15.094;2023-01-08T01:25:13;5.50;;;4.27;;
8161;SDS011;16778;48.154;15.094;2023-01-08T01:27:39;9.70;;;4.50;;
8161;SDS011;16778;48.154;15.094;2023-01-08T01:30:05;10.03;;;4.83;;
8161;SDS011;16778;48.154;15.094;2023-01-08T01:32:32;8.20;;;4.47;;
8161;SDS011;16778;48.154;15.094;2023-01-08T01:34:57;6.80;;;4.10;;
8161;SDS011;16778;48.154;15.094;2023-01-08T01:37:23;7.33;;;4.60;;
8161;SDS011;16778;48.154;15.094;2023-01-08T01:39:48;7.17;;;4.17;;
8161;SDS011;16778;48.154;15.094;2023-01-08T01:42:15;6.17;;;4.10;;
8161;SDS011;16778;48.154;15.094;2023-01-08T01:45:00;7.20;;;3.80;;
8161;SDS011;16778;48.154;15.094;2023-01-08T01:47:35;5.97;;;4.17;;
8161;SDS011;16778;48.154;15.094;2023-01-08T01:50:04;8.43;;;4.50;;
8161;SDS011;16778;48.154;15.094;2023-01-08T01:52:34;5.30;;;3.63;;
8161;SDS011;16778;48.154;15.094;2023-01-08T01:55:05;6.17;;;3.90;;
8161;SDS011;16778;48.154;15.094;2023-01-08T01:57:32;6.83;;;4.07;;
8161;SDS011;16778;48.154;15.094;2023-01-08T01:59:58;8.47;;;4.03;;
8161;SDS011;16778;48.154;15.094;2023-01-08T02:02:25;7.30;;;4.43;;
8161;SDS011;16778;48.154;15.094;2023-01-08T02:04:51;11.77;;;4.63;;
8161;SDS011;16778;48.154;15.094;2023-01-08T02:09:59;10.13;;;4.70;;
8161;SDS011;16778;48.154;15.094;2023-01-08T02:17:49;10.23;;;5.00;;
8161;SDS011;16778;48.154;15.094;2023-01-08T02:23:05;8.67;;;4.70;;
8161;SDS011;16778;48.154;15.094;2023-01-08T02:25:40;9.17;;;4.97;;
8161;SDS011;16778;48.154;15.094;2023-01-08T02:28:27;9.90;;;5.17;;
8161;SDS011;16778;48.154;15.094;2023-01-08T02:30:54;11.13;;;5.20;;
8161;SDS011;16778;48.154;15.094;2023-01-08T02:33:21;10.37;;;5.43;;
8161;SDS011;16778;48.154;15.094;2023-01-08T02:35:51;14.90;;;7.30;;
8161;SDS011;16778;48.154;15.094;2023-01-08T02:38:18;15.83;;;8.10;;
8161;SDS011;16778;48.154;15.094;2023-01-08T02:40:56;22.00;;;8.70;;
8161;SDS011;16778;48.154;15.094;2023-01-08T02:43:26;23.30;;;9.80;;
8161;SDS011;16778;48.154;15.094;2023-01-08T02:45:58;18.80;;;9.27;;
8161;SDS011;16778;48.154;15.094;2023-01-08T02:48:38;22.63;;;10.07;;
8161;SDS011;16778;48.154;15.094;2023-01-08T02:53:37;20.07;;;9.17;;
8161;SDS011;16778;48.154;15.094;2023-01-08T02:56:40;14.03;;;7.90;;
8161;SDS011;16778;48.154;15.094;2023-01-08T02:58:58;18.07;;;8.30;;
8161;SDS011;16778;48.154;15.094;2023-01-08T03:01:24;16.23;;;8.60;;
8161;SDS011;16778;48.154;15.094;2023-01-08T03:03:51;16.10;;;8.17;;
8161;SDS011;16778;48.154;15.094;2023-01-08T03:06:20;19.27;;;8.43;;
8161;SDS011;16778;48.154;15.094;2023-01-08T03:08:46;18.10;;;7.97;;
8161;SDS011;16778;48.154;15.094;2023-01-08T03:11:14;17.10;;;8.27;;
8161;SDS011;16778;48.154;15.094;2023-01-08T03:16:47;18.87;;;8.70;;
8161;SDS011;16778;48.154;15.094;2023-01-08T03:19:25;22.40;;;8.83;;
8161;SDS011;16778;48.154;15.094;2023-01-08T03:21:54;23.77;;;8.80;;
8161;SDS011;16778;48.154;15.094;2023-01-08T03:24:21;16.53;;;7.83;;
8161;SDS011;16778;48.154;15.094;2023-01-08T03:26:49;20.00;;;7.90;;
8161;SDS011;16778;48.154;15.094;2023-01-08T03:29:16;17.93;;;8.37;;
8161;SDS011;16778;48.154;15.094;2023-01-08T03:31:44;18.07;;;8.17;;
8161;SDS011;16778;48.154;15.094;2023-01-08T03:34:10;16.80;;;7.90;;
8161;SDS011;16778;48.154;15.094;2023-01-08T03:36:37;20.17;;;8.23;;
8161;SDS011;16778;48.154;15.094;2023-01-08T03:39:11;19.07;;;8.27;;
8161;SDS011;16778;48.154;15.094;2023-01-08T03:41:40;14.13;;;6.90;;
8161;SDS011;16778;48.154;15.094;2023-01-08T03:44:06;16.70;;;8.07;;
8161;SDS011;16778;48.154;15.094;2023-01-08T03:46:33;14.57;;;7.00;;
8161;SDS011;16778;48.154;15.094;2023-01-08T03:49:03;15.57;;;7.00;;
8161;SDS011;16778;48.154;15.094;2023-01-08T03:51:38;17.40;;;7.83;;
8161;SDS011;16778;48.154;15.094;2023-01-08T03:54:04;15.77;;;7.00;;
8161;SDS011;16778;48.154;15.094;2023-01-08T03:56:30;17.13;;;7.03;;
8161;SDS011;16778;48.154;15.094;2023-01-08T03:58:56;15.50;;;7.73;;
8161;SDS011;16778;48.154;15.094;2023-01-08T04:01:21;12.07;;;6.20;;
8161;SDS011;16778;48.154;15.094;2023-01-08T04:03:47;13.50;;;6.63;;
8161;SDS011;16778;48.154;15.094;2023-01-08T04:06:13;14.93;;;6.90;;
8161;SDS011;16778;48.154;15.094;2023-01-08T04:08:38;11.83;;;6.23;;
8161;SDS011;16778;48.154;15.094;2023-01-08T04:11:04;13.30;;;6.70;;
8161;SDS011;16778;48.154;15.094;2023-01-08T04:13:30;14.17;;;7.43;;
8161;SDS011;16778;48.154;15.094;2023-01-08T04:15:55;12.90;;;6.03;;
8161;SDS011;16778;48.154;15.094;2023-01-08T04:18:22;12.30;;;6.53;;
8161;SDS011;16778;48.154;15.094;2023-01-08T04:20:47;12.77;;;6.20;;
8161;SDS011;16778;48.154;15.094;2023-01-08T04:23:13;12.13;;;5.63;;
8161;SDS011;16778;48.154;15.094;2023-01-08T04:25:39;15.13;;;6.47;;
8161;SDS011;16778;48.154;15.094;2023-01-08T04:28:05;14.70;;;6.93;;
8161;SDS011;16778;48.154;15.094;2023-01-08T04:30:33;12.87;;;6.47;;
8161;SDS011;16778;48.154;15.094;2023-01-08T04:32:59;12.70;;;6.37;;
8161;SDS011;16778;48.154;15.094;2023-01-08T04:35:24;12.57;;;6.67;;
8161;SDS011;16778;48.154;15.094;2023-01-08T04:37:50;14.53;;;6.90;;
8161;SDS011;16778;48.154;15.094;2023-01-08T04:40:16;12.73;;;6.60;;
8161;SDS011;16778;48.154;15.094;2023-01-08T04:42:41;13.83;;;7.70;;
8161;SDS011;16778;48.154;15.094;2023-01-08T04:45:07;14.00;;;7.07;;
8161;SDS011;16778;48.154;15.094;2023-01-08T04:47:33;17.97;;;7.23;;
8161;SDS011;16778;48.154;15.094;2023-01-08T04:49:58;10.90;;;6.70;;
8161;SDS011;16778;48.154;15.094;2023-01-08T04:52:24;16.43;;;7.33;;
8161;SDS011;16778;48.154;15.094;2023-01-08T04:54:49;20.17;;;9.10;;
8161;SDS011;16778;48.154;15.094;2023-01-08T04:57:15;19.90;;;9.40;;
8161;SDS011;16778;48.154;15.094;2023-01-08T04:59:41;16.90;;;7.23;;
8161;SDS011;16778;48.154;15.094;2023-01-08T05:02:06;16.33;;;6.97;;
8161;SDS011;16778;48.154;15.094;2023-01-08T05:04:32;15.60;;;7.47;;
8161;SDS011;16778;48.154;15.094;2023-01-08T05:06:58;19.27;;;7.73;;
8161;SDS011;16778;48.154;15.094;2023-01-08T05:09:23;16.80;;;8.27;;
8161;SDS011;16778;48.154;15.094;2023-01-08T05:11:49;16.77;;;7.47;;
8161;SDS011;16778;48.154;15.094;2023-01-08T05:14:14;14.77;;;6.97;;
8161;SDS011;16778;48.154;15.094;2023-01-08T05:16:40;15.80;;;7.33;;
8161;SDS011;16778;48.154;15.094;2023-01-08T05:19:06;16.00;;;7.57;;
8161;SDS011;16778;48.154;15.094;2023-01-08T05:21:31;18.87;;;7.83;;
8161;SDS011;16778;48.154;15.094;2023-01-08T05:23:57;17.70;;;7.70;;
8161;SDS011;16778;48.154;15.094;2023-01-08T05:26:23;17.10;;;7.83;;
8161;SDS011;16778;48.154;15.094;2023-01-08T05:28:48;17.80;;;7.97;;
8161;SDS011;16778;48.154;15.094;2023-01-08T05:31:14;14.70;;;6.80;;
8161;SDS011;16778;48.154;15.094;2023-01-08T05:33:39;16.93;;;7.97;;
8161;SDS011;16778;48.154;15.094;2023-01-08T05:36:06;14.80;;;7.57;;
8161;SDS011;16778;48.154;15.094;2023-01-08T05:38:33;16.17;;;7.37;;
8161;SDS011;16778;48.154;15.094;2023-01-08T05:40:58;15.90;;;8.20;;
8161;SDS011;16778;48.154;15.094;2023-01-08T05:43:24;15.73;;;7.13;;
8161;SDS011;16778;48.154;15.094;2023-01-08T05:45:50;17.27;;;7.90;;
8161;SDS011;16778;48.154;15.094;2023-01-08T05:48:16;14.87;;;7.97;;
8161;SDS011;16778;48.154;15.094;2023-01-08T05:50:41;15.77;;;8.13;;
8161;SDS011;16778;48.154;15.094;2023-01-08T05:53:07;15.10;;;7.60;;
8161;SDS011;16778;48.154;15.094;2023-01-08T05:55:33;15.13;;;7.30;;
8161;SDS011;16778;48.154;15.094;2023-01-08T05:58:02;14.97;;;7.13;;
8161;SDS011;16778;48.154;15.094;2023-01-08T06:00:29;15.83;;;7.30;;
8161;SDS011;16778;48.154;15.094;2023-01-08T06:02:55;15.50;;;7.63;;
8161;SDS011;16778;48.154;15.094;2023-01-08T06:05:21;12.63;;;6.90;;
8161;SDS011;16778;48.154;15.094;2023-01-08T06:07:47;14.67;;;7.27;;
8161;SDS011;16778;48.154;15.094;2023-01-08T06:10:12;13.63;;;6.90;;
8161;SDS011;16778;48.154;15.094;2023-01-08T06:12:38;11.73;;;7.23;;
8161;SDS011;16778;48.154;15.094;2023-01-08T06:15:04;12.90;;;6.73;;
8161;SDS011;16778;48.154;15.094;2023-01-08T06:17:31;11.93;;;6.23;;
8161;SDS011;16778;48.154;15.094;2023-01-08T06:19:57;11.53;;;6.00;;
8161;SDS011;16778;48.154;15.094;2023-01-08T06:22:22;12.73;;;6.47;;
8161;SDS011;16778;48.154;15.094;2023-01-08T06:24:48;11.33;;;6.67;;
8161;SDS011;16778;48.154;15.094;2023-01-08T06:27:13;14.97;;;7.17;;
8161;SDS011;16778;48.154;15.094;2023-01-08T06:29:39;11.43;;;5.93;;
8161;SDS011;16778;48.154;15.094;2023-01-08T06:32:05;12.87;;;6.93;;
8161;SDS011;16778;48.154;15.094;2023-01-08T06:34:30;11.83;;;6.10;;
8161;SDS011;16778;48.154;15.094;2023-01-08T06:36:56;11.27;;;5.83;;
8161;SDS011;16778;48.154;15.094;2023-01-08T06:39:21;12.13;;;6.80;;
8161;SDS011;16778;48.154;15.094;2023-01-08T06:41:47;11.70;;;6.57;;
8161;SDS011;16778;48.154;15.094;2023-01-08T06:44:13;11.37;;;6.20;;
8161;SDS011;16778;48.154;15.094;2023-01-08T06:46:38;9.43;;;5.47;;
8161;SDS011;16778;48.154;15.094;2023-01-08T06:49:07;10.60;;;5.47;;
8161;SDS011;16778;48.154;15.094;2023-01-08T06:51:33;9.43;;;5.27;;
8161;SDS011;16778;48.154;15.094;2023-01-08T06:53:59;8.47;;;5.07;;
8161;SDS011;16778;48.154;15.094;2023-01-08T06:56:24;11.97;;;5.80;;
8161;SDS011;16778;48.154;15.094;2023-01-08T06:58:50;12.80;;;5.27;;
8161;SDS011;16778;48.154;15.094;2023-01-08T07:01:16;8.37;;;4.80;;
8161;SDS011;16778;48.154;15.094;2023-01-08T07:03:41;8.97;;;5.33;;
8161;SDS011;16778;48.154;15.094;2023-01-08T07:06:14;9.40;;;5.00;;
8161;SDS011;16778;48.154;15.094;2023-01-08T07:08:41;9.93;;;5.40;;
8161;SDS011;16778;48.154;15.094;2023-01-08T07:11:07;9.20;;;4.90;;
8161;SDS011;16778;48.154;15.094;2023-01-08T07:13:33;10.73;;;5.60;;
8161;SDS011;16778;48.154;15.094;2023-01-08T07:16:03;8.03;;;4.73;;
8161;SDS011;16778;48.154;15.094;2023-01-08T07:18:39;9.60;;;5.27;;
8161;SDS011;16778;48.154;15.094;2023-01-08T07:21:05;12.00;;;5.90;;
8161;SDS011;16778;48.154;15.094;2023-01-08T07:23:31;9.03;;;5.10;;
8161;SDS011;16778;48.154;15.094;2023-01-08T07:26:01;9.90;;;5.33;;
8161;SDS011;16778;48.154;15.094;2023-01-08T07:28:27;10.70;;;5.50;;
8161;SDS011;16778;48.154;15.094;2023-01-08T07:30:53;13.57;;;6.20;;
8161;SDS011;16778;48.154;15.094;2023-01-08T07:33:19;13.37;;;5.67;;
8161;SDS011;16778;48.154;15.094;2023-01-08T07:35:51;9.43;;;5.67;;
8161;SDS011;16778;48.154;15.094;2023-01-08T07:38:17;12.47;;;5.67;;
8161;SDS011;16778;48.154;15.094;2023-01-08T07:40:43;9.67;;;5.63;;
8161;SDS011;16778;48.154;15.094;2023-01-08T07:43:08;8.90;;;5.60;;
8161;SDS011;16778;48.154;15.094;2023-01-08T07:45:36;10.10;;;5.43;;
8161;SDS011;16778;48.154;15.094;2023-01-08T07:48:03;10.37;;;5.27;;
8161;SDS011;16778;48.154;15.094;2023-01-08T07:50:29;8.53;;;5.17;;
8161;SDS011;16778;48.154;15.094;2023-01-08T07:52:58;9.70;;;5.53;;
8161;SDS011;16778;48.154;15.094;2023-01-08T07:55:24;10.17;;;6.17;;
8161;SDS011;16778;48.154;15.094;2023-01-08T07:57:50;9.27;;;5.20;;
8161;SDS011;16778;48.154;15.094;2023-01-08T08:00:16;10.47;;;5.50;;
8161;SDS011;16778;48.154;15.094;2023-01-08T08:02:42;10.93;;;5.53;;
8161;SDS011;16778;48.154;15.094;2023-01-08T08:05:08;10.70;;;5.17;;
8161;SDS011;16778;48.154;15.094;2023-01-08T08:07:33;12.93;;;5.80;;
8161;SDS011;16778;48.154;15.094;2023-01-08T08:10:00;10.30;;;5.50;;
8161;SDS011;16778;48.154;15.094;2023-01-08T08:12:26;11.50;;;5.57;;
8161;SDS011;16778;48.154;15.094;2023-01-08T08:14:51;10.97;;;5.13;;
8161;SDS011;16778;48.154;15.094;2023-01-08T08:17:17;18.30;;;5.70;;
8161;SDS011;16778;48.154;15.094;2023-01-08T08:19:43;9.40;;;5.53;;
8161;SDS011;16778;48.154;15.094;2023-01-08T08:22:09;10.67;;;5.43;;
8161;SDS011;16778;48.154;15.094;2023-01-08T08:24:35;14.73;;;5.60;;
8161;SDS011;16778;48.154;15.094;2023-01-08T08:27:01;11.53;;;5.73;;
8161;SDS011;16778;48.154;15.094;2023-01-08T08:29:26;10.47;;;5.63;;
8161;SDS011;16778;48.154;15.094;2023-01-08T08:31:52;12.20;;;5.93;;
8161;SDS011;16778;48.154;15.094;2023-01-08T08:34:18;14.00;;;6.43;;
8161;SDS011;16778;48.154;15.094;2023-01-08T08:36:46;11.37;;;6.03;;
8161;SDS011;16778;48.154;15.094;2023-01-08T08:39:12;16.10;;;7.47;;
8161;SDS011;16778;48.154;15.094;2023-01-08T08:41:38;10.80;;;5.50;;
8161;SDS011;16778;48.154;15.094;2023-01-08T08:44:03;12.87;;;5.97;;
8161;SDS011;16778;48.154;15.094;2023-01-08T08:46:29;16.50;;;7.43;;
8161;SDS011;16778;48.154;15.094;2023-01-08T08:48:55;13.80;;;7.07;;
8161;SDS011;16778;48.154;15.094;2023-01-08T08:51:21;14.13;;;7.20;;
8161;SDS011;16778;48.154;15.094;2023-01-08T08:53:46;12.07;;;5.90;;
8161;SDS011;16778;48.154;15.094;2023-01-08T08:56:12;11.77;;;6.77;;
8161;SDS011;16778;48.154;15.094;2023-01-08T08:58:38;15.70;;;6.90;;
8161;SDS011;16778;48.154;15.094;2023-01-08T09:01:05;17.90;;;8.07;;
8161;SDS011;16778;48.154;15.094;2023-01-08T09:03:32;13.77;;;6.67;;
8161;SDS011;16778;48.154;15.094;2023-01-08T09:05:58;16.93;;;8.23;;
8161;SDS011;16778;48.154;15.094;2023-01-08T09:08:24;15.13;;;6.37;;
8161;SDS011;16778;48.154;15.094;2023-01-08T09:10:49;15.60;;;7.60;;
8161;SDS011;16778;48.154;15.094;2023-01-08T09:13:15;13.37;;;6.57;;
8161;SDS011;16778;48.154;15.094;2023-01-08T09:15:41;13.20;;;7.10;;
8161;SDS011;16778;48.154;15.094;2023-01-08T09:18:06;12.70;;;7.00;;
8161;SDS011;16778;48.154;15.094;2023-01-08T09:20:32;16.03;;;7.47;;
8161;SDS011;16778;48.154;15.094;2023-01-08T09:22:58;18.33;;;7.77;;
8161;SDS011;16778;48.154;15.094;2023-01-08T09:25:25;15.03;;;6.57;;
8161;SDS011;16778;48.154;15.094;2023-01-08T09:28:04;18.10;;;7.70;;
8161;SDS011;16778;48.154;15.094;2023-01-08T09:30:31;11.70;;;6.27;;
8161;SDS011;16778;48.154;15.094;2023-01-08T09:32:58;14.90;;;7.07;;
8161;SDS011;16778;48.154;15.094;2023-01-08T09:35:24;13.03;;;6.97;;
8161;SDS011;16778;48.154;15.094;2023-01-08T09:37:50;12.00;;;6.50;;
8161;SDS011;16778;48.154;15.094;2023-01-08T09:40:17;15.63;;;6.43;;
8161;SDS011;16778;48.154;15.094;2023-01-08T09:42:43;17.93;;;6.63;;
8161;SDS011;16778;48.154;15.094;2023-01-08T09:45:15;15.33;;;7.40;;
8161;SDS011;16778;48.154;15.094;2023-01-08T09:47:49;14.23;;;6.53;;
8161;SDS011;16778;48.154;15.094;2023-01-08T09:50:14;15.93;;;6.57;;
8161;SDS011;16778;48.154;15.094;2023-01-08T09:52:40;15.00;;;7.03;;
8161;SDS011;16778;48.154;15.094;2023-01-08T09:55:11;18.17;;;7.67;;
8161;SDS011;16778;48.154;15.094;2023-01-08T09:57:37;14.93;;;7.70;;
8161;SDS011;16778;48.154;15.094;2023-01-08T10:00:05;16.17;;;8.37;;
8161;SDS011;16778;48.154;15.094;2023-01-08T10:02:47;16.77;;;8.50;;
8161;SDS011;16778;48.154;15.094;2023-01-08T10:05:14;15.57;;;7.23;;
8161;SDS011;16778;48.154;15.094;2023-01-08T10:07:41;15.73;;;7.60;;
8161;SDS011;16778;48.154;15.094;2023-01-08T10:10:26;16.23;;;7.90;;
8161;SDS011;16778;48.154;15.094;2023-01-08T10:12:53;15.60;;;7.83;;
8161;SDS011;16778;48.154;15.094;2023-01-08T10:15:20;20.03;;;8.83;;
8161;SDS011;16778;48.154;15.094;2023-01-08T10:20:26;18.17;;;10.10;;
8161;SDS011;16778;48.154;15.094;2023-01-08T10:22:53;20.17;;;9.33;;
8161;SDS011;16778;48.154;15.094;2023-01-08T10:25:23;16.27;;;7.87;;
8161;SDS011;16778;48.154;15.094;2023-01-08T10:30:28;16.13;;;8.03;;
8161;SDS011;16778;48.154;15.094;2023-01-08T10:33:03;17.60;;;7.70;;
8161;SDS011;16778;48.154;15.094;2023-01-08T10:35:32;13.33;;;6.53;;
8161;SDS011;16778;48.154;15.094;2023-01-08T10:38:00;15.00;;;7.33;;
8161;SDS011;16778;48.154;15.094;2023-01-08T10:40:27;13.90;;;7.13;;
8161;SDS011;16778;48.154;15.094;2023-01-08T10:43:33;16.30;;;7.33;;
8161;SDS011;16778;48.154;15.094;2023-01-08T10:46:00;16.63;;;7.03;;
8161;SDS011;16778;48.154;15.094;2023-01-08T10:48:31;15.30;;;7.67;;
8161;SDS011;16778;48.154;15.094;2023-01-08T10:51:31;14.20;;;7.20;;
8161;SDS011;16778;48.154;15.094;2023-01-08T10:53:54;14.67;;;7.20;;
8161;SDS011;16778;48.154;15.094;2023-01-08T10:56:26;13.10;;;6.80;;
8161;SDS011;16778;48.154;15.094;2023-01-08T10:59:03;15.33;;;7.17;;
8161;SDS011;16778;48.154;15.094;2023-01-08T11:01:29;14.80;;;7.30;;
8161;SDS011;16778;48.154;15.094;2023-01-08T11:04:02;16.77;;;7.03;;
8161;SDS011;16778;48.154;15.094;2023-01-08T11:06:30;12.57;;;6.17;;
8161;SDS011;16778;48.154;15.094;2023-01-08T11:09:00;14.93;;;6.07;;
8161;SDS011;16778;48.154;15.094;2023-01-08T11:11:32;14.17;;;6.97;;
8161;SDS011;16778;48.154;15.094;2023-01-08T11:14:00;17.60;;;7.47;;
8161;SDS011;16778;48.154;15.094;2023-01-08T11:16:37;14.10;;;6.30;;
8161;SDS011;16778;48.154;15.094;2023-01-08T11:19:04;14.50;;;7.40;;
8161;SDS011;16778;48.154;15.094;2023-01-08T11:21:38;18.40;;;8.13;;
8161;SDS011;16778;48.154;15.094;2023-01-08T11:26:42;13.17;;;6.83;;
8161;SDS011;16778;48.154;15.094;2023-01-08T11:29:12;18.33;;;7.10;;
8161;SDS011;16778;48.154;15.094;2023-01-08T11:31:48;17.37;;;7.27;;
8161;SDS011;16778;48.154;15.094;2023-01-08T11:36:53;18.90;;;7.67;;
8161;SDS011;16778;48.154;15.094;2023-01-08T11:39:24;18.27;;;6.37;;
8161;SDS011;16778;48.154;15.094;2023-01-08T11:44:54;13.33;;;6.33;;
8161;SDS011;16778;48.154;15.094;2023-01-08T11:50:34;19.13;;;7.60;;
8161;SDS011;16778;48.154;15.094;2023-01-08T11:53:25;14.17;;;6.30;;
8161;SDS011;16778;48.154;15.094;2023-01-08T12:06:42;13.77;;;6.43;;
8161;SDS011;16778;48.154;15.094;2023-01-08T12:09:43;17.47;;;7.20;;
8161;SDS011;16778;48.154;15.094;2023-01-08T12:17:39;12.27;;;6.03;;
8161;SDS011;16778;48.154;15.094;2023-01-08T12:20:18;11.67;;;6.00;;
8161;SDS011;16778;48.154;15.094;2023-01-08T12:22:53;16.40;;;6.90;;
8161;SDS011;16778;48.154;15.094;2023-01-08T12:36:15;15.37;;;6.67;;
8161;SDS011;16778;48.154;15.094;2023-01-08T12:38:51;17.57;;;7.60;;
8161;SDS011;16778;48.154;15.094;2023-01-08T12:41:28;16.90;;;7.40;;
8161;SDS011;16778;48.154;15.094;2023-01-08T12:43:56;12.20;;;6.10;;
8161;SDS011;16778;48.154;15.094;2023-01-08T12:46:25;17.63;;;7.17;;
8161;SDS011;16778;48.154;15.094;2023-01-08T12:48:53;13.43;;;7.17;;
8161;SDS011;16778;48.154;15.094;2023-01-08T12:56:44;12.20;;;5.77;;
8161;SDS011;16778;48.154;15.094;2023-01-08T13:07:43;15.07;;;7.10;;
8161;SDS011;16778;48.154;15.094;2023-01-08T13:13:04;14.70;;;6.40;;
8161;SDS011;16778;48.154;15.094;2023-01-08T13:15:45;15.20;;;7.27;;
8161;SDS011;16778;48.154;15.094;2023-01-08T13:18:18;18.23;;;7.33;;
8161;SDS011;16778;48.154;15.094;2023-01-08T13:20:57;12.83;;;6.30;;
8161;SDS011;16778;48.154;15.094;2023-01-08T13:23:28;14.20;;;6.00;;
8161;SDS011;16778;48.154;15.094;2023-01-08T13:26:03;15.70;;;6.40;;
8161;SDS011;16778;48.154;15.094;2023-01-08T13:33:45;15.60;;;6.83;;
8161;SDS011;16778;48.154;15.094;2023-01-08T13:38:59;15.20;;;6.63;;
8161;SDS011;16778;48.154;15.094;2023-01-08T13:41:28;13.93;;;6.60;;
8161;SDS011;16778;48.154;15.094;2023-01-08T13:44:32;15.37;;;6.80;;
8161;SDS011;16778;48.154;15.094;2023-01-08T13:47:03;16.03;;;6.87;;
8161;SDS011;16778;48.154;15.094;2023-01-08T13:49:41;15.13;;;6.33;;
8161;SDS011;16778;48.154;15.094;2023-01-08T13:55:16;17.70;;;7.73;;
8161;SDS011;16778;48.154;15.094;2023-01-08T13:58:03;14.23;;;6.87;;
8161;SDS011;16778;48.154;15.094;2023-01-08T14:03:21;13.33;;;6.53;;
8161;SDS011;16778;48.154;15.094;2023-01-08T14:08:47;15.40;;;6.90;;
8161;SDS011;16778;48.154;15.094;2023-01-08T14:11:14;12.93;;;6.07;;
8161;SDS011;16778;48.154;15.094;2023-01-08T14:13:41;15.73;;;6.37;;
8161;SDS011;16778;48.154;15.094;2023-01-08T14:16:09;15.70;;;6.53;;
8161;SDS011;16778;48.154;15.094;2023-01-08T14:18:38;13.17;;;6.53;;
8161;SDS011;16778;48.154;15.094;2023-01-08T14:21:05;16.73;;;7.40;;
8161;SDS011;16778;48.154;15.094;2023-01-08T14:23:32;13.33;;;6.83;;
8161;SDS011;16778;48.154;15.094;2023-01-08T14:26:02;16.17;;;7.07;;
8161;SDS011;16778;48.154;15.094;2023-01-08T14:28:30;16.37;;;6.80;;
8161;SDS011;16778;48.154;15.094;2023-01-08T14:30:56;16.27;;;7.20;;
8161;SDS011;16778;48.154;15.094;2023-01-08T14:33:32;17.00;;;6.73;;
8161;SDS011;16778;48.154;15.094;2023-01-08T14:35:59;15.33;;;7.30;;
8161;SDS011;16778;48.154;15.094;2023-01-08T14:38:26;10.33;;;5.93;;
8161;SDS011;16778;48.154;15.094;2023-01-08T14:41:25;14.00;;;5.73;;
8161;SDS011;16778;48.154;15.094;2023-01-08T14:44:28;12.23;;;5.47;;
8161;SDS011;16778;48.154;15.094;2023-01-08T14:46:54;14.80;;;7.10;;
8161;SDS011;16778;48.154;15.094;2023-01-08T14:51:49;18.07;;;6.80;;
8161;SDS011;16778;48.154;15.094;2023-01-08T14:54:17;13.83;;;5.47;;
8161;SDS011;16778;48.154;15.094;2023-01-08T14:56:48;11.87;;;5.97;;
8161;SDS011;16778;48.154;15.094;2023-01-08T14:59:16;12.03;;;5.43;;
8161;SDS011;16778;48.154;15.094;2023-01-08T15:01:49;11.47;;;5.93;;
8161;SDS011;16778;48.154;15.094;2023-01-08T15:04:17;9.33;;;4.67;;
8161;SDS011;16778;48.154;15.094;2023-01-08T15:06:44;10.17;;;5.07;;
8161;SDS011;16778;48.154;15.094;2023-01-08T15:11:56;10.37;;;5.17;;
8161;SDS011;16778;48.154;15.094;2023-01-08T15:14:25;14.07;;;5.13;;
8161;SDS011;16778;48.154;15.094;2023-01-08T15:16:55;11.67;;;5.27;;
8161;SDS011;16778;48.154;15.094;2023-01-08T15:19:26;11.10;;;4.57;;
8161;SDS011;16778;48.154;15.094;2023-01-08T15:21:54;13.43;;;5.40;;
8161;SDS011;16778;48.154;15.094;2023-01-08T15:26:57;11.53;;;5.17;;
8161;SDS011;16778;48.154;15.094;2023-01-08T15:29:28;12.63;;;5.53;;
8161;SDS011;16778;48.154;15.094;2023-01-08T15:32:07;9.17;;;5.10;;
8161;SDS011;16778;48.154;15.094;2023-01-08T15:34:43;9.03;;;4.70;;
8161;SDS011;16778;48.154;15.094;2023-01-08T15:37:10;10.13;;;4.83;;
8161;SDS011;16778;48.154;15.094;2023-01-08T15:39:36;9.40;;;4.47;;
8161;SDS011;16778;48.154;15.094;2023-01-08T15:42:14;13.17;;;6.23;;
8161;SDS011;16778;48.154;15.094;2023-01-08T15:45:07;29.77;;;11.73;;
8161;SDS011;16778;48.154;15.094;2023-01-08T15:47:36;13.27;;;5.60;;
8161;SDS011;16778;48.154;15.094;2023-01-08T15:50:01;11.10;;;5.27;;
8161;SDS011;16778;48.154;15.094;2023-01-08T15:52:27;13.83;;;4.93;;
8161;SDS011;16778;48.154;15.094;2023-01-08T15:54:54;14.23;;;5.23;;
8161;SDS011;16778;48.154;15.094;2023-01-08T15:57:21;12.13;;;5.27;;
8161;SDS011;16778;48.154;15.094;2023-01-08T15:59:47;11.97;;;5.20;;
8161;SDS011;16778;48.154;15.094;2023-01-08T16:02:12;9.73;;;5.23;;
8161;SDS011;16778;48.154;15.094;2023-01-08T16:04:40;9.73;;;5.23;;
8161;SDS011;16778;48.154;15.094;2023-01-08T16:07:06;10.13;;;4.90;;
8161;SDS011;16778;48.154;15.094;2023-01-08T16:09:31;10.33;;;4.87;;
8161;SDS011;16778;48.154;15.094;2023-01-08T16:11:57;8.97;;;4.87;;
8161;SDS011;16778;48.154;15.094;2023-01-08T16:14:23;10.70;;;5.20;;
8161;SDS011;16778;48.154;15.094;2023-01-08T16:16:48;9.97;;;5.57;;
8161;SDS011;16778;48.154;15.094;2023-01-08T16:19:14;10.53;;;5.13;;
8161;SDS011;16778;48.154;15.094;2023-01-08T16:21:39;9.70;;;5.00;;
8161;SDS011;16778;48.154;15.094;2023-01-08T16:24:13;11.80;;;5.13;;
8161;SDS011;16778;48.154;15.094;2023-01-08T16:26:39;12.97;;;5.27;;
8161;SDS011;16778;48.154;15.094;2023-01-08T16:29:05;12.47;;;5.23;;